Time;durP1;ratioP1;P1;durP2;ratioP2;P2;SDS_P1;SDS_P2;PMS_P1;PMS_P2;Temp;Humidity;BMP_temperature;BMP_pressure;BME280_temperature;BME280_humidity;BME280_pressure;Samples;Min_cycle;Max_cycle;Signal;HPM_P1;HPM_P2
2021/11/18 00:01:03;;;;;;;;;;;;;;;22.34;27.92;98583.59;4878615;29;926;-80
2021/11/18 00:03:29;;;;;;;;;;;;;;;22.29;27.94;98589.78;4889517;29;915;-80
2021/11/18 00:05:55;;;;;;;;;;;;;;;22.65;27.68;98585.41;4896381;29;891;-79
2021/11/18 00:08:20;;;;;;;;;;;;;;;22.71;27.50;98590.09;4914526;29;1964;-80
2021/11/18 00:10:52;;;;;;;;;;;;;;;22.40;27.58;98597.25;4951708;29;1083;-79
2021/11/18 00:13:17;;;;;;;;;;;;;;;22.17;27.83;98600.94;4949417;29;939;-79
2021/11/18 00:15:43;;;;;;;;;;;;;;;22.15;28.12;98583.56;4952898;29;911;-80
2021/11/18 00:18:13;;;;;;;;;;;;;;;22.45;28.43;98593.91;4969995;29;990;-80
2021/11/18 00:20:40;;;;;;;;;;;;;;;22.74;27.71;98575.06;4964710;29;1210;-80
2021/11/18 00:23:05;;;;;;;;;;;;;;;22.56;27.67;98580.31;4933859;29;913;-79
2021/11/18 00:25:31;;;;;;;;;;;;;;;22.34;27.83;98583.59;4928416;29;927;-80
2021/11/18 00:27:56;;;;;;;;;;;;;;;22.30;27.59;98585.69;4912568;29;1902;-79
2021/11/18 00:30:22;;;;;;;;;;;;;;;22.28;28.34;98582.50;4912288;29;897;-79
2021/11/18 00:32:47;;;;;;;;;;;;;;;22.63;27.63;98582.97;4937519;29;1054;-79
2021/11/18 00:35:15;;;;;;;;;;;;;;;22.61;27.69;98572.06;4968963;28;934;-79
2021/11/18 00:37:41;;;;;;;;;;;;;;;22.39;27.51;98578.66;4969723;28;1254;-80
2021/11/18 00:40:07;;;;;;;;;;;;;;;22.24;27.80;98578.94;4969637;28;875;-79
2021/11/18 00:42:32;;;;;;;;;;;;;;;22.45;27.61;98582.56;4951780;29;1117;-80
2021/11/18 00:44:59;;;;;;;;;;;;;;;22.70;27.53;98582.84;4949821;29;1049;-79
2021/11/18 00:47:26;;;;;;;;;;;;;;;22.77;27.65;98579.03;4897907;29;1973;-80
2021/11/18 00:49:52;;;;;;;;;;;;;;;22.47;27.80;98591.44;4881300;29;1019;-80
2021/11/18 00:52:17;;;;;;;;;;;;;;;22.33;27.57;98587.66;4909350;29;1144;-80
2021/11/18 00:54:43;;;;;;;;;;;;;;;22.38;27.32;98594.03;4928798;29;947;-80
2021/11/18 00:57:08;;;;;;;;;;;;;;;22.40;28.16;98592.38;4913382;29;1249;-79
2021/11/18 00:59:34;;;;;;;;;;;;;;;22.70;27.57;98576.38;4910858;29;1306;-80
2021/11/18 01:01:59;;;;;;;;;;;;;;;22.68;27.50;98585.31;4913534;29;1019;-80
2021/11/18 01:04:30;;;;;;;;;;;;;;;22.40;27.57;98589.53;4926861;29;1360;-80
2021/11/18 01:06:56;;;;;;;;;;;;;;;22.39;27.50;98578.66;4932811;29;1906;-80
2021/11/18 01:09:21;;;;;;;;;;;;;;;22.32;28.00;98580.38;4930867;29;1289;-79
2021/11/18 01:11:49;;;;;;;;;;;;;;;22.52;28.08;98571.88;4932101;29;1216;-80
2021/11/18 01:14:18;;;;;;;;;;;;;;;22.77;27.50;98581.88;4945456;29;973;-80
2021/11/18 01:16:44;;;;;;;;;;;;;;;22.50;27.35;98580.03;4950664;28;1159;-80
2021/11/18 01:19:10;;;;;;;;;;;;;;;22.16;28.05;98583.13;4921530;29;1226;-80
2021/11/18 01:21:35;;;;;;;;;;;;;;;22.40;27.58;98585.91;4930993;29;1157;-80
2021/11/18 01:24:02;;;;;;;;;;;;;;;22.43;27.70;98582.19;4868624;29;1174;-79
2021/11/18 01:26:42;;;;;;;;;;;;;;;22.30;27.94;98588.53;4890936;29;1305;-80
2021/11/18 01:29:08;;;;;;;;;;;;;;;22.39;28.04;98587.97;4858214;29;1910;-80
2021/11/18 01:31:34;;;;;;;;;;;;;;;22.31;28.27;98581.63;4898827;29;1298;-80
2021/11/18 01:34:00;;;;;;;;;;;;;;;22.27;27.97;98578.03;4892102;29;904;-78
2021/11/18 01:36:32;;;;;;;;;;;;;;;22.18;28.45;98572.19;4875015;29;1253;-79
2021/11/18 01:39:05;;;;;;;;;;;;;;;22.25;28.07;98574.84;4892131;29;1476;-80
2021/11/18 01:41:30;;;;;;;;;;;;;;;22.50;27.81;98563.00;4909325;29;1085;-80
2021/11/18 01:43:58;;;;;;;;;;;;;;;22.66;27.55;98559.41;4906695;29;1205;-79
2021/11/18 01:46:34;;;;;;;;;;;;;;;22.68;27.50;98568.28;4911167;29;1168;-79
2021/11/18 01:49:05;;;;;;;;;;;;;;;22.36;27.71;98569.75;4925873;29;1884;-79
2021/11/18 01:51:33;;;;;;;;;;;;;;;22.39;27.55;98570.16;4932278;29;916;-81
2021/11/18 01:53:59;;;;;;;;;;;;;;;22.24;27.77;98561.94;4948754;29;1144;-80
2021/11/18 01:56:26;;;;;;;;;;;;;;;22.57;28.03;98556.38;4949963;29;1279;-79
2021/11/18 01:58:56;;;;;;;;;;;;;;;22.71;27.39;98558.91;4947913;29;956;-79
2021/11/18 02:01:42;;;;;;;;;;;;;;;22.47;27.49;98560.22;4960644;29;997;-79
2021/11/18 02:04:11;;;;;;;;;;;;;;;22.21;28.08;98557.13;4944279;29;1323;-80
2021/11/18 02:07:07;;;;;;;;;;;;;;;22.02;28.08;98549.38;4884661;29;1980;-79
2021/11/18 02:09:37;;;;;;;;;;;;;;;22.58;27.70;98547.41;4897096;29;1060;-79
2021/11/18 02:12:25;;;;;;;;;;;;;;;22.69;27.37;98547.22;4846887;29;1305;-79
2021/11/18 02:14:52;;;;;;;;;;;;;;;22.47;27.38;98540.38;4871605;29;1243;-80
2021/11/18 02:17:18;;;;;;;;;;;;;;;22.49;27.19;98544.41;4892368;29;1047;-80
2021/11/18 02:19:45;;;;;;;;;;;;;;;22.28;27.52;98545.66;4909683;29;1169;-79
2021/11/18 02:22:11;;;;;;;;;;;;;;;22.31;28.04;98544.75;4895918;29;946;-80
2021/11/18 02:24:41;;;;;;;;;;;;;;;22.62;27.62;98533.16;4909577;29;1278;-80
2021/11/18 02:27:09;;;;;;;;;;;;;;;22.77;27.24;98537.28;4885255;29;2026;-79
2021/11/18 02:29:34;;;;;;;;;;;;;;;22.38;27.78;98546.63;4871633;29;1181;-80
2021/11/18 02:32:01;;;;;;;;;;;;;;;22.32;27.55;98552.03;4867133;29;1009;-79
2021/11/18 02:34:38;;;;;;;;;;;;;;;22.27;27.79;98544.03;4867493;29;1516;-80
2021/11/18 02:37:04;;;;;;;;;;;;;;;22.52;27.91;98543.50;4855038;29;1132;-80
2021/11/18 02:39:30;;;;;;;;;;;;;;;22.83;27.16;98534.72;4848945;29;1160;-79
2021/11/18 02:41:59;;;;;;;;;;;;;;;22.74;27.32;98538.19;4855979;29;1158;-80
2021/11/18 02:44:24;;;;;;;;;;;;;;;22.34;27.71;98546.72;4868600;29;1306;-80
2021/11/18 02:46:50;;;;;;;;;;;;;;;21.81;28.80;98539.25;4865691;29;930;-80
2021/11/18 02:49:15;;;;;;;;;;;;;;;22.40;27.72;98540.56;4888404;29;1970;-80
2021/11/18 02:51:41;;;;;;;;;;;;;;;22.57;27.88;98545.03;4890302;29;1486;-80
2021/11/18 02:54:09;;;;;;;;;;;;;;;22.72;27.40;98540.63;4874569;29;1427;-80
2021/11/18 02:56:36;;;;;;;;;;;;;;;22.43;27.55;98533.97;4911150;29;1316;-80
2021/11/18 02:59:01;;;;;;;;;;;;;;;22.15;28.06;98536.19;4911441;29;1219;-79
2021/11/18 03:01:32;;;;;;;;;;;;;;;22.11;28.31;98543.97;4948200;29;1120;-79
2021/11/18 03:04:00;;;;;;;;;;;;;;;22.38;28.30;98548.69;4927921;29;1125;-79
2021/11/18 03:06:26;;;;;;;;;;;;;;;22.72;27.66;98542.69;4930104;29;1117;-80
2021/11/18 03:08:51;;;;;;;;;;;;;;;22.59;27.36;98542.56;4927808;29;1899;-80
2021/11/18 03:11:20;;;;;;;;;;;;;;;22.13;28.32;98541.50;4946033;29;1205;-80
2021/11/18 03:13:47;;;;;;;;;;;;;;;22.32;27.67;98543.50;4965433;29;1344;-80
2021/11/18 03:16:13;;;;;;;;;;;;;;;22.36;28.05;98549.91;4892456;29;1200;-80
2021/11/18 03:18:38;;;;;;;;;;;;;;;22.40;27.59;98540.56;4873021;29;893;-79
2021/11/18 03:21:05;;;;;;;;;;;;;;;22.44;27.74;98546.94;4874833;29;932;-79
2021/11/18 03:23:31;;;;;;;;;;;;;;;22.21;28.16;98545.78;4904573;29;1240;-79
2021/11/18 03:26:01;;;;;;;;;;;;;;;22.45;27.93;98548.53;4930278;29;1215;-79
2021/11/18 03:28:26;;;;;;;;;;;;;;;22.77;27.31;98548.63;4894803;29;1958;-80
2021/11/18 03:30:54;;;;;;;;;;;;;;;22.51;27.67;98546.78;4911948;29;1220;-79
2021/11/18 03:33:23;;;;;;;;;;;;;;;22.21;27.82;98551.44;4891955;29;1144;-80
2021/11/18 03:35:49;;;;;;;;;;;;;;;22.27;27.79;98551.75;4892324;29;1144;-80
2021/11/18 03:38:15;;;;;;;;;;;;;;;22.56;27.60;98549.09;4870593;29;1718;-79
2021/11/18 03:40:44;;;;;;;;;;;;;;;22.69;27.37;98547.22;4854492;29;1147;-80
2021/11/18 03:43:11;;;;;;;;;;;;;;;22.43;27.54;98545.31;4867519;29;1441;-79
2021/11/18 03:45:37;;;;;;;;;;;;;;;22.35;27.36;98545.50;4853912;29;1083;-80
2021/11/18 03:48:03;;;;;;;;;;;;;;;22.35;27.32;98556.03;4888830;29;1910;-79
2021/11/18 03:50:32;;;;;;;;;;;;;;;22.49;27.55;98554.94;4891027;29;1169;-79
2021/11/18 03:52:58;;;;;;;;;;;;;;;22.38;27.50;98555.16;4889325;29;1269;-80
2021/11/18 03:55:23;;;;;;;;;;;;;;;22.35;27.49;98556.84;4890641;29;1017;-80
2021/11/18 03:57:53;;;;;;;;;;;;;;;22.23;27.83;98562.38;4890329;29;1189;-80
2021/11/18 04:00:23;;;;;;;;;;;;;;;22.49;27.96;98543.59;4897605;29;1262;-79
2021/11/18 04:02:50;;;;;;;;;;;;;;;22.63;27.42;98554.59;4868736;29;1107;-79
2021/11/18 04:05:24;;;;;;;;;;;;;;;22.47;27.47;98557.41;4868001;29;1141;-80
2021/11/18 04:07:50;;;;;;;;;;;;;;;22.36;27.64;98566.13;4890013;29;1914;-80
2021/11/18 04:10:18;;;;;;;;;;;;;;;22.27;27.73;98561.03;4888802;29;1205;-80
2021/11/18 04:12:44;;;;;;;;;;;;;;;22.30;28.11;98559.38;4914410;29;1329;-80
2021/11/18 04:15:10;;;;;;;;;;;;;;;22.64;27.52;98559.06;4911557;29;1280;-80
2021/11/18 04:17:35;;;;;;;;;;;;;;;22.67;27.46;98561.00;4929483;29;1192;-80
2021/11/18 04:20:01;;;;;;;;;;;;;;;22.57;27.29;98564.88;4946035;29;1187;-80
2021/11/18 04:22:28;;;;;;;;;;;;;;;22.32;27.61;98571.88;4932679;29;1362;-80
2021/11/18 04:24:53;;;;;;;;;;;;;;;22.21;27.81;98574.13;4901431;29;1117;-78
2021/11/18 04:27:19;;;;;;;;;;;;;;;22.70;27.63;98571.50;4910288;29;1910;-79
2021/11/18 04:29:47;;;;;;;;;;;;;;;22.71;27.34;98566.63;4910883;29;1166;-80
2021/11/18 04:32:15;;;;;;;;;;;;;;;22.44;27.39;98569.63;4913095;29;951;-80
2021/11/18 04:34:46;;;;;;;;;;;;;;;22.21;27.72;98574.13;4911698;29;1122;-80
2021/11/18 04:37:11;;;;;;;;;;;;;;;22.31;27.31;98569.47;4916747;29;1122;-80
2021/11/18 04:39:37;;;;;;;;;;;;;;;22.09;28.36;98569.88;4892704;29;1102;-80
2021/11/18 04:42:03;;;;;;;;;;;;;;;22.64;27.53;98567.59;4879310;29;1280;-80
2021/11/18 04:44:29;;;;;;;;;;;;;;;22.68;27.19;98562.59;4858479;29;938;-80
2021/11/18 04:46:58;;;;;;;;;;;;;;;22.53;27.31;98572.66;4853263;29;1230;-80
2021/11/18 04:49:24;;;;;;;;;;;;;;;22.34;27.38;98572.25;4836894;29;1896;-80
2021/11/18 04:51:50;;;;;;;;;;;;;;;22.36;28.00;98569.75;4838656;29;1217;-79
2021/11/18 04:54:16;;;;;;;;;;;;;;;22.58;27.70;98567.28;4855032;29;1131;-80
2021/11/18 04:56:41;;;;;;;;;;;;;;;22.65;27.53;98569.16;4918586;29;920;-80
2021/11/18 04:59:07;;;;;;;;;;;;;;;22.60;27.38;98572.53;4945157;29;1138;-80
2021/11/18 05:01:34;;;;;;;;;;;;;;;22.16;28.05;98577.47;4950293;29;1254;-80
2021/11/18 05:04:00;;;;;;;;;;;;;;;22.37;27.89;98581.91;4929690;29;1263;-80
2021/11/18 05:06:26;;;;;;;;;;;;;;;22.30;28.53;98585.69;4950508;29;1224;-80
2021/11/18 05:08:52;;;;;;;;;;;;;;;22.68;27.68;98588.13;4964106;28;1899;-80
2021/11/18 05:11:17;;;;;;;;;;;;;;;22.60;27.44;98583.88;4933805;29;1388;-80
2021/11/18 05:13:45;;;;;;;;;;;;;;;22.26;27.92;98593.47;4897907;29;1265;-80
2021/11/18 05:16:12;;;;;;;;;;;;;;;22.33;27.81;98587.66;4916203;29;1173;-77
2021/11/18 05:18:38;;;;;;;;;;;;;;;22.34;28.41;98597.75;4946654;29;1323;-78
2021/11/18 05:21:06;;;;;;;;;;;;;;;22.72;27.69;98599.41;4951796;29;1330;-78
2021/11/18 05:23:31;;;;;;;;;;;;;;;22.91;27.40;98600.66;4931072;29;990;-78
2021/11/18 05:26:00;;;;;;;;;;;;;;;22.90;27.41;98601.88;4953671;29;1275;-77
2021/11/18 05:28:26;;;;;;;;;;;;;;;22.53;27.74;98612.38;4964809;29;1948;-77
2021/11/18 05:30:52;;;;;;;;;;;;;;;22.38;27.95;98611.06;4915083;29;1309;-78
2021/11/18 05:33:18;;;;;;;;;;;;;;;22.35;27.52;98609.91;4925163;29;1053;-77
2021/11/18 05:35:44;;;;;;;;;;;;;;;22.32;27.81;98620.06;4900521;29;1287;-77
2021/11/18 05:38:10;;;;;;;;;;;;;;;21.99;28.60;98618.25;4872172;29;925;-77
2021/11/18 05:40:39;;;;;;;;;;;;;;;22.26;28.26;98610.47;4858627;29;1274;-77
2021/11/18 05:43:06;;;;;;;;;;;;;;;22.54;27.72;98608.31;4894071;29;1102;-77
2021/11/18 05:45:33;;;;;;;;;;;;;;;22.61;27.46;98616.66;4930150;29;1256;-77
2021/11/18 05:48:08;;;;;;;;;;;;;;;22.43;27.50;98616.22;4927678;29;1962;-78
2021/11/18 05:50:33;;;;;;;;;;;;;;;22.16;28.14;98614.31;4930030;29;1098;-77
2021/11/18 05:53:00;;;;;;;;;;;;;;;22.29;27.61;98606.78;4928859;29;1179;-78
2021/11/18 05:55:28;;;;;;;;;;;;;;;22.43;27.64;98613.38;4924933;29;1101;-78
2021/11/18 05:57:53;;;;;;;;;;;;;;;22.61;27.46;98608.94;4912724;29;1157;-78
2021/11/18 06:00:20;;;;;;;;;;;;;;;22.45;27.36;98622.28;4925352;29;1133;-77
2021/11/18 06:02:48;;;;;;;;;;;;;;;22.22;27.71;98618.25;4925151;29;1213;-77
2021/11/18 06:05:14;;;;;;;;;;;;;;;22.34;27.07;98623.28;4894243;29;1096;-78
2021/11/18 06:07:40;;;;;;;;;;;;;;;22.41;27.94;98621.53;4915156;29;1980;-77
2021/11/18 06:10:06;;;;;;;;;;;;;;;22.68;27.25;98625.00;4981552;28;1159;-77
2021/11/18 06:12:32;;;;;;;;;;;;;;;22.58;27.12;98626.03;5001907;28;1203;-78
2021/11/18 06:14:57;;;;;;;;;;;;;;;22.30;27.79;98625.38;4995001;28;1233;-77
2021/11/18 06:17:23;;;;;;;;;;;;;;;22.28;27.85;98636.38;5007207;28;1315;-77
2021/11/18 06:19:49;;;;;;;;;;;;;;;22.35;28.32;98644.72;4988188;28;1356;-78
2021/11/18 06:22:17;;;;;;;;;;;;;;;22.57;27.62;98630.13;5006668;28;1280;-77
2021/11/18 06:25:09;;;;;;;;;;;;;;;22.52;27.60;98639.13;4957974;28;984;-77
2021/11/18 06:27:35;;;;;;;;;;;;;;;22.22;28.05;98632.41;4966120;29;1883;-77
2021/11/18 06:30:01;;;;;;;;;;;;;;;22.26;28.01;98638.03;4984684;28;1156;-77
2021/11/18 06:32:26;;;;;;;;;;;;;;;22.36;28.04;98637.81;4987645;28;1079;-77
2021/11/18 06:34:52;;;;;;;;;;;;;;;22.61;28.01;98630.84;4966069;28;1112;-78
2021/11/18 06:37:18;;;;;;;;;;;;;;;22.56;27.86;98639.88;4967493;28;981;-78
2021/11/18 06:39:44;;;;;;;;;;;;;;;22.22;27.97;98640.91;4946100;29;1209;-78
2021/11/18 06:42:10;;;;;;;;;;;;;;;22.23;27.97;98634.03;4932435;29;1209;-77
2021/11/18 06:44:36;;;;;;;;;;;;;;;21.99;28.24;98635.25;4930555;29;1216;-78
2021/11/18 06:47:01;;;;;;;;;;;;;;;22.56;27.75;98632.16;4909850;29;1159;-77
2021/11/18 06:49:27;;;;;;;;;;;;;;;22.68;27.57;98630.69;4907115;29;1961;-77
2021/11/18 06:51:52;;;;;;;;;;;;;;;22.56;27.59;98639.88;4891208;29;1169;-77
2021/11/18 06:54:18;;;;;;;;;;;;;;;22.27;28.21;98634.75;4870597;29;1223;-77
2021/11/18 06:56:44;;;;;;;;;;;;;;;22.23;28.28;98636.06;4853911;29;1234;-78
2021/11/18 06:59:10;;;;;;;;;;;;;;;22.22;28.04;98638.09;4852162;29;1228;-78
2021/11/18 07:01:38;;;;;;;;;;;;;;;22.73;27.93;98632.22;4820500;29;1126;-78
2021/11/18 07:04:07;;;;;;;;;;;;;;;22.70;27.92;98638.78;4836428;29;1147;-78
2021/11/18 07:06:34;;;;;;;;;;;;;;;22.41;27.82;98632.88;4854613;29;1263;-78
2021/11/18 07:09:01;;;;;;;;;;;;;;;22.14;28.12;98635.84;4836422;29;1975;-77
2021/11/18 07:11:26;;;;;;;;;;;;;;;22.24;28.29;98641.28;4854225;29;1178;-77
2021/11/18 07:13:54;;;;;;;;;;;;;;;22.70;28.04;98639.56;4850970;29;1175;-77
2021/11/18 07:16:20;;;;;;;;;;;;;;;22.83;27.48;98631.97;4839633;29;1249;-78
2021/11/18 07:18:47;;;;;;;;;;;;;;;22.52;27.60;98633.47;4835937;29;1736;-78
2021/11/18 07:21:13;;;;;;;;;;;;;;;22.32;28.11;98628.56;4851679;29;1206;-77
2021/11/18 07:23:39;;;;;;;;;;;;;;;22.22;28.11;98635.25;4773832;29;1159;-78
2021/11/18 07:26:05;;;;;;;;;;;;;;;22.52;28.21;98631.41;4794439;30;1252;-78
2021/11/18 07:28:32;;;;;;;;;;;;;;;22.72;27.74;98624.94;4811821;29;1884;-79
2021/11/18 07:30:57;;;;;;;;;;;;;;;22.73;27.43;98627.34;4844502;29;1183;-78
2021/11/18 07:33:24;;;;;;;;;;;;;;;22.15;27.60;98572.25;4864088;29;1139;-78
2021/11/18 07:35:54;;;;;;;;;;;;;;;22.38;27.26;98628.06;4876522;29;1181;-78
2021/11/18 07:38:24;;;;;;;;;;;;;;;22.23;27.69;98634.03;4888712;29;933;-78
2021/11/18 07:40:50;;;;;;;;;;;;;;;22.33;28.46;98635.88;4911164;29;1059;-78
2021/11/18 07:43:30;;;;;;;;;;;;;;;22.76;27.48;98631.34;4926280;29;910;-78
2021/11/18 07:46:34;;;;;;;;;;;;;;;21.94;28.37;98632.94;4944936;29;1477;-78
2021/11/18 07:49:04;;;;;;;;;;;;;;;22.53;27.66;98640.72;4927319;29;1907;-78
2021/11/18 07:51:37;;;;;;;;;;;;;;;22.28;27.82;98641.25;4909642;29;1265;-77
2021/11/18 07:54:05;;;;;;;;;;;;;;;22.07;28.98;98642.38;4897643;29;1213;-78
2021/11/18 07:56:31;;;;;;;;;;;;;;;22.63;28.07;98637.66;4911030;29;1251;-78
2021/11/18 07:58:57;;;;;;;;;;;;;;;22.74;27.67;98640.31;4909001;29;1197;-78
2021/11/18 08:01:22;;;;;;;;;;;;;;;22.49;27.68;98637.19;4869222;29;1193;-78
2021/11/18 08:03:49;;;;;;;;;;;;;;;22.32;27.61;98631.41;4853280;29;1401;-78
2021/11/18 08:06:24;;;;;;;;;;;;;;;22.49;27.86;98628.69;4869216;29;1158;-78
2021/11/18 08:08:55;;;;;;;;;;;;;;;22.67;27.49;98629.09;4857863;29;1911;-78
2021/11/18 08:11:32;;;;;;;;;;;;;;;22.64;27.59;98627.16;4857307;29;1278;-78
2021/11/18 08:13:58;;;;;;;;;;;;;;;22.28;28.02;98636.38;4855538;29;1159;-78
2021/11/18 08:16:23;;;;;;;;;;;;;;;22.22;27.56;98629.56;4837566;29;1359;-78
2021/11/18 08:18:55;;;;;;;;;;;;;;;22.10;27.91;98621.69;4839836;29;1313;-78
2021/11/18 08:21:21;;;;;;;;;;;;;;;22.57;27.76;98625.25;4877645;29;1190;-78
2021/11/18 08:23:46;;;;;;;;;;;;;;;22.57;27.74;98622.41;4873441;29;1228;-78
2021/11/18 08:26:13;;;;;;;;;;;;;;;22.62;27.40;98623.94;4878059;29;1114;-78
2021/11/18 08:28:38;;;;;;;;;;;;;;;22.43;27.38;98627.56;4912365;29;1980;-77
2021/11/18 08:31:04;;;;;;;;;;;;;;;22.26;27.16;98638.81;4918213;29;1228;-77
2021/11/18 08:33:35;;;;;;;;;;;;;;;22.44;27.92;98629.19;4911102;29;1257;-77
2021/11/18 08:36:01;;;;;;;;;;;;;;;22.49;27.67;98634.34;4914848;29;926;-78
2021/11/18 08:38:26;;;;;;;;;;;;;;;22.64;27.82;98635.66;4910387;29;1147;-78
2021/11/18 08:40:56;;;;;;;;;;;;;;;22.47;27.78;98636.81;4878622;29;1140;-77
2021/11/18 08:43:23;;;;;;;;;;;;;;;22.23;27.93;98621.91;4890993;29;1141;-77
2021/11/18 08:45:50;;;;;;;;;;;;;;;22.09;28.07;98620.09;4896097;29;1335;-78
2021/11/18 08:48:17;;;;;;;;;;;;;;;22.57;28.02;98627.28;4893629;29;1911;-78
2021/11/18 08:50:44;;;;;;;;;;;;;;;22.70;27.54;98628.22;4895312;29;1313;-78
2021/11/18 08:53:13;;;;;;;;;;;;;;;22.69;27.25;98620.97;4892510;29;1216;-78
2021/11/18 08:55:42;;;;;;;;;;;;;;;22.43;27.75;98611.34;4894580;29;1306;-77
2021/11/18 08:58:09;;;;;;;;;;;;;;;22.40;27.37;98608.59;4889770;29;1137;-78
2021/11/18 09:00:47;;;;;;;;;;;;;;;22.38;27.73;98616.72;4873168;29;1061;-78
2021/11/18 09:03:19;;;;;;;;;;;;;;;22.23;28.28;98613.41;4891702;29;1089;-78
2021/11/18 09:05:45;;;;;;;;;;;;;;;22.19;28.10;98621.16;4894777;29;1114;-77
2021/11/18 09:08:11;;;;;;;;;;;;;;;22.28;27.85;98616.53;4895811;29;1892;-78
2021/11/18 09:10:38;;;;;;;;;;;;;;;22.51;27.94;98609.19;4931283;29;1369;-78
2021/11/18 09:13:04;;;;;;;;;;;;;;;22.73;27.72;98593.28;4893154;29;1136;-78
2021/11/18 09:15:30;;;;;;;;;;;;;;;22.45;27.96;98593.91;4883419;29;1082;-78
2021/11/18 09:17:57;;;;;;;;;;;;;;;22.32;27.91;98597.38;4866221;29;1202;-78
2021/11/18 09:20:47;;;;;;;;;;;;;;;22.05;28.08;98594.66;4914403;29;1050;-77
2021/11/18 09:23:13;;;;;;;;;;;;;;;22.49;28.21;98583.31;4891722;29;1492;-78
2021/11/18 09:25:41;;;;;;;;;;;;;;;22.79;27.43;98585.84;4875711;29;1146;-77
2021/11/18 09:28:08;;;;;;;;;;;;;;;22.75;27.25;98592.88;4852942;29;1992;-78
2021/11/18 09:30:41;;;;;;;;;;;;;;;22.21;27.89;98591.13;4838427;29;1180;-78
2021/11/18 09:33:07;;;;;;;;;;;;;;;22.42;27.34;98603.28;4781983;30;1368;-78
2021/11/18 09:35:52;;;;;;;;;;;;;;;22.21;27.84;98602.47;4801791;30;1304;-78
2021/11/18 09:38:20;;;;;;;;;;;;;;;22.47;28.59;98591.44;4781772;30;1437;-78
2021/11/18 09:40:49;;;;;;;;;;;;;;;22.74;27.75;98588.41;4766993;30;1381;-78
2021/11/18 09:43:24;;;;;;;;;;;;;;;22.61;27.49;98596.81;4768151;30;1208;-78
2021/11/18 09:45:56;;;;;;;;;;;;;;;22.44;27.80;98593.13;4785899;30;1222;-78
2021/11/18 09:48:27;;;;;;;;;;;;;;;22.26;28.01;98582.13;4797616;29;1975;-78
2021/11/18 09:51:04;;;;;;;;;;;;;;;22.31;28.19;98578.78;4785743;30;1133;-78
2021/11/18 09:53:37;;;;;;;;;;;;;;;22.64;27.77;98570.41;4825190;29;1293;-78
2021/11/18 09:56:24;;;;;;;;;;;;;;;22.64;27.34;98567.59;4840506;29;1141;-77
2021/11/18 09:59:00;;;;;;;;;;;;;;;22.16;27.52;98577.47;4860288;29;1245;-78
2021/11/18 10:01:37;;;;;;;;;;;;;;;22.02;27.47;98580.53;4902443;29;1251;-78
2021/11/18 10:04:21;;;;;;;;;;;;;;;22.22;28.02;98578.56;4879239;29;1375;-78
2021/11/18 10:06:47;;;;;;;;;;;;;;;22.63;27.52;98565.97;4883293;29;1164;-78
2021/11/18 10:09:37;;;;;;;;;;;;;;;22.65;27.66;98574.84;4855643;29;1888;-78
2021/11/18 10:12:03;;;;;;;;;;;;;;;22.41;27.35;98571.28;4913152;29;1121;-78
2021/11/18 10:14:46;;;;;;;;;;;;;;;22.31;27.35;98573.09;4945577;29;1456;-78
2021/11/18 10:17:14;;;;;;;;;;;;;;;22.28;28.13;98581.72;4951242;29;1097;-78
2021/11/18 10:19:41;;;;;;;;;;;;;;;22.66;27.46;98565.09;4948471;29;1285;-77
2021/11/18 10:22:10;;;;;;;;;;;;;;;22.74;27.25;98560.03;4950453;29;870;-78
2021/11/18 10:24:38;;;;;;;;;;;;;;;22.32;27.75;98560.53;4895650;29;873;-78
2021/11/18 10:27:12;;;;;;;;;;;;;;;22.31;27.41;98563.81;4887972;29;949;-78
2021/11/18 10:29:55;;;;;;;;;;;;;;;22.26;27.57;98558.66;4890888;29;1981;-78
2021/11/18 10:32:23;;;;;;;;;;;;;;;22.59;27.63;98559.59;4902578;29;1167;-78
2021/11/18 10:34:57;;;;;;;;;;;;;;;22.71;27.58;98560.94;4891654;29;1098;-78
2021/11/18 10:37:25;;;;;;;;;;;;;;;22.71;27.03;98556.06;4926154;29;2250;-78
2021/11/18 10:39:56;;;;;;;;;;;;;;;22.53;27.06;98558.47;4926532;29;914;-78
2021/11/18 10:42:24;;;;;;;;;;;;;;;22.28;27.62;98562.66;4927581;29;856;-78
2021/11/18 10:44:57;;;;;;;;;;;;;;;22.38;27.91;98548.69;4900749;29;1083;-77
2021/11/18 10:47:24;;;;;;;;;;;;;;;22.58;27.72;98547.41;4890831;29;2000;-77
2021/11/18 10:50:09;;;;;;;;;;;;;;;22.79;27.30;98545.34;4907521;29;1268;-77
2021/11/18 10:52:41;;;;;;;;;;;;;;;22.51;27.13;98550.41;4909503;29;935;-77
2021/11/18 10:55:08;;;;;;;;;;;;;;;22.23;27.13;98554.66;4920697;29;881;-76
2021/11/18 10:57:34;;;;;;;;;;;;;;;22.26;27.57;98552.97;4929615;29;942;-77
2021/11/18 11:00:10;;;;;;;;;;;;;;;22.55;27.46;98547.50;4927881;29;1247;-76
2021/11/18 11:02:35;;;;;;;;;;;;;;;22.76;26.97;98546.25;4930546;29;1278;-77
2021/11/18 11:05:03;;;;;;;;;;;;;;;22.50;27.06;98542.34;4929204;29;1324;-77
2021/11/18 11:07:33;;;;;;;;;;;;;;;22.35;27.33;98539.81;4951066;29;1903;-77
2021/11/18 11:09:58;;;;;;;;;;;;;;;22.34;26.99;98531.75;4965700;29;1138;-77
2021/11/18 11:12:26;;;;;;;;;;;;;;;22.35;27.84;98541.84;4966040;29;929;-78
2021/11/18 11:15:11;;;;;;;;;;;;;;;22.61;27.46;98540.88;4947199;29;958;-77
2021/11/18 11:17:51;;;;;;;;;;;;;;;22.68;27.08;98534.25;4968510;29;865;-78
2021/11/18 11:20:21;;;;;;;;;;;;;;;22.30;27.48;98531.03;4951511;29;936;-78
2021/11/18 11:22:46;;;;;;;;;;;;;;;22.10;27.40;98542.34;4929464;29;966;-77
2021/11/18 11:25:15;;;;;;;;;;;;;;;22.21;27.43;98539.31;4931011;29;890;-77
2021/11/18 11:27:57;;;;;;;;;;;;;;;22.25;27.39;98534.38;4949393;29;1954;-78
2021/11/18 11:30:31;;;;;;;;;;;;;;;22.50;27.54;98528.19;4968634;29;978;-77
2021/11/18 11:33:04;;;;;;;;;;;;;;;22.60;27.23;98521.47;4909949;29;1171;-78
2021/11/18 11:35:33;;;;;;;;;;;;;;;22.58;27.15;98535.28;4900171;29;1076;-78
2021/11/18 11:38:01;;;;;;;;;;;;;;;22.24;27.50;98527.13;4890573;29;1210;-77
2021/11/18 11:40:45;;;;;;;;;;;;;;;22.36;27.05;98530.06;4933321;29;1439;-78
2021/11/18 11:43:19;;;;;;;;;;;;;;;22.16;27.83;98534.94;4932142;29;976;-78
2021/11/18 11:45:50;;;;;;;;;;;;;;;22.56;27.04;98534.94;4934559;29;1026;-78
2021/11/18 11:48:22;;;;;;;;;;;;;;;22.71;26.80;98526.91;4937342;29;1962;-78
2021/11/18 11:50:52;;;;;;;;;;;;;;;22.39;27.30;98524.78;4914834;29;903;-77
2021/11/18 11:53:20;;;;;;;;;;;;;;;22.03;27.77;98534.00;4925554;29;1094;-78
2021/11/18 11:55:59;;;;;;;;;;;;;;;22.22;27.03;98524.69;4953310;29;958;-78
2021/11/18 11:58:26;;;;;;;;;;;;;;;22.15;27.17;98524.06;4957767;28;919;-78
2021/11/18 12:00:54;;;;;;;;;;;;;;;22.35;27.75;98525.66;4962717;28;977;-77
2021/11/18 12:03:34;;;;;;;;;;;;;;;22.67;26.80;98526.97;4922148;29;931;-77
2021/11/18 12:06:05;;;;;;;;;;;;;;;22.80;26.80;98525.06;4900161;29;880;-77
2021/11/18 12:08:41;;;;;;;;;;;;;;;22.29;27.20;98530.22;4921407;29;1907;-77
2021/11/18 12:11:14;;;;;;;;;;;;;;;22.18;27.49;98523.19;4956762;28;1222;-78
2021/11/18 12:13:48;;;;;;;;;;;;;;;22.39;27.39;98510.59;5007284;28;1130;-78
2021/11/18 12:16:16;;;;;;;;;;;;;;;22.81;26.77;98509.63;4991569;28;959;-77
2021/11/18 12:18:46;;;;;;;;;;;;;;;22.91;26.31;98501.34;4987797;28;906;-78
2021/11/18 12:21:11;;;;;;;;;;;;;;;23.03;26.11;98503.47;4954507;29;1298;-78
2021/11/18 12:23:55;;;;;;;;;;;;;;;22.51;26.70;98507.09;4945815;29;820;-78
2021/11/18 12:26:21;;;;;;;;;;;;;;;22.48;26.88;98496.59;4928705;29;935;-78
2021/11/18 12:28:58;;;;;;;;;;;;;;;22.11;27.35;98495.78;4911185;29;1995;-78
2021/11/18 12:31:27;;;;;;;;;;;;;;;22.38;27.01;98497.63;4930274;29;1007;-77
2021/11/18 12:33:54;;;;;;;;;;;;;;;22.43;26.93;98508.47;4929944;29;948;-78
2021/11/18 12:36:24;;;;;;;;;;;;;;;22.74;26.75;98498.47;4934200;29;887;-77
2021/11/18 12:39:09;;;;;;;;;;;;;;;22.76;26.58;98495.97;4930915;29;851;-78
2021/11/18 12:41:43;;;;;;;;;;;;;;;22.57;26.74;98489.09;4933649;29;758;-78
2021/11/18 12:44:14;;;;;;;;;;;;;;;22.24;27.24;98491.06;4932014;29;903;-78
2021/11/18 12:46:55;;;;;;;;;;;;;;;22.29;27.12;98496.22;4934492;29;910;-78
2021/11/18 12:50:04;;;;;;;;;;;;;;;22.17;27.54;98490.41;4931613;29;1966;-78
2021/11/18 12:52:30;;;;;;;;;;;;;;;22.70;26.50;98492.06;4996605;28;928;-78
2021/11/18 12:55:14;;;;;;;;;;;;;;;22.63;26.37;98495.03;5048052;28;913;-77
2021/11/18 12:57:40;;;;;;;;;;;;;;;22.14;27.16;98494.13;5049099;28;878;-77
2021/11/18 13:00:09;;;;;;;;;;;;;;;22.16;26.77;98509.44;5062355;28;916;-77
2021/11/18 13:02:41;;;;;;;;;;;;;;;22.56;26.80;98495.22;5071467;28;767;-77
2021/11/18 13:05:10;;;;;;;;;;;;;;;22.83;26.09;98484.44;5030652;28;1138;-78
2021/11/18 13:07:36;;;;;;;;;;;;;;;22.47;26.46;98480.84;5048917;28;1974;-78
2021/11/18 13:10:20;;;;;;;;;;;;;;;22.25;26.68;98478.47;5031317;28;1065;-78